Sunny Isles, Florida
Current Conditions -  °F | °C
As of 12:53 PM on Thursday 27 Nov 2014 (Local Time) from KHWO Reporting Station
Clear Clear  
Wind Chill: 71°   Ceiling: Unl
Heat Index: 71°   Visibility: 10mi
Dew Point: 39°   Wind: 18mph
Humidity: 31%   Direction: 340°NNW
Pressure: 30.21"   Gusts: NA
Location:  25.9339°N, 80.1467°W
Report Text: KHWO 271753Z 34016KT 10SM CLR 22/04 A3021 RMK AO2 PK WND 01027/1710 SLP230 T02170039 10217 20122 58024
Loading
Personal Weather Stations






























Interactive Weather Map New forecast layout! Learn more

10-Day Weather Forecast

Advertisements
Track Severe Weather on mobile